Emden — 3ERP5 — position and weather

sailwx.info

Track history (hours):
 
Tides and Currents Weather Stations Pressure Air Temp Water Temp Dewpoint Dewpoint Depression Visibility Wind Speed Wind Dir Waves Ship Positions

Emden

Last reported at 2015-Apr-21 17:33 UTC. Time now 2015-Apr-21 17:53 UTC.
Position N 51°31' E 001°35'.

Length 177 m; draft 7.8 m.

Type: Ship. MMSI: 355051000.

Date/timePositionNaut miles runAvg speedWind from/ knotsBaromVisibWave heightAir tempDewpointWater temp
2015-Apr-21 17:33N 51°31' E 001°35'1212.3
2015-Apr-21 16:33N 51°34' E 001°54'1212.1
2015-Apr-21 15:33N 51°41' E 002°10'1212.4
2015-Apr-21 14:33N 51°49' E 002°26'1313.0
2015-Apr-21 13:33N 51°58' E 002°40'1414.4
2015-Apr-21 12:33N 52°09' E 002°56'1515.3
2015-Apr-21 11:33N 52°21' E 003°12'1615.6
2015-Apr-21 10:33N 52°33' E 003°27'1615.5
2015-Apr-21 09:32N 52°46' E 003°42'1414.7
2015-Apr-21 08:33N 52°57' E 003°58'1313.5
2015-Apr-21 07:33N 53°06' E 004°15'1212.2
2015-Apr-21 06:33N 53°15' E 004°28'1312.6
2015-Apr-21 05:33N 53°26' E 004°37'1312.8
2015-Apr-21 04:33N 53°32' E 004°56'1514.9
2015-Apr-21 03:33N 53°37' E 005°20'1515.0
2015-Apr-21 02:33N 53°41' E 005°44'1313.4
2015-Apr-21 01:33N 53°43' E 006°07'1212.2
2015-Apr-21 00:34N 53°37' E 006°25'1312.9
2015-Apr-20 23:34N 53°32' E 006°44'1211.9
2015-Apr-20 22:34N 53°23' E 006°58'7 7.1
2015-Apr-20 21:34N 53°20' E 007°09'1 1.2
2015-Apr-20 20:31N 53°20' E 007°11'0 0.0
2015-Apr-20 19:31N 53°20' E 007°11'0 0.0
2015-Apr-20 18:31N 53°20' E 007°11'0 0.0
2015-Apr-20 17:28N 53°20' E 007°11'0 0.0
2015-Apr-20 16:28N 53°20' E 007°11'0 0.0
2015-Apr-20 15:31N 53°20' E 007°11'0 0.0
2015-Apr-20 14:31N 53°20' E 007°11'0 0.0
2015-Apr-20 13:31N 53°20' E 007°11'0 0.0
2015-Apr-20 12:31N 53°20' E 007°11'0 0.0
2015-Apr-20 11:31N 53°20' E 007°11'0 0.0
2015-Apr-20 10:31N 53°20' E 007°11'0 0.0
2015-Apr-20 09:31N 53°20' E 007°11'0 0.0
2015-Apr-20 08:31N 53°20' E 007°11'0 0.0
2015-Apr-20 07:25N 53°20' E 007°11'0 0.0
2015-Apr-20 06:28N 53°20' E 007°11'0 0.0
2015-Apr-20 05:31N 53°20' E 007°11'0 0.0
2015-Apr-20 04:31N 53°20' E 007°11'0 0.0
2015-Apr-20 03:31N 53°20' E 007°11'0 0.0
2015-Apr-20 02:28N 53°20' E 007°11'0 0.0
2015-Apr-20 01:28N 53°20' E 007°11'0 0.0
2015-Apr-20 00:25N 53°20' E 007°11'0 0.0
2015-Apr-19 23:19N 53°20' E 007°11'0 0.0
2015-Apr-19 22:22N 53°20' E 007°11'0 0.0
2015-Apr-19 21:31N 53°20' E 007°11'2 1.9
2015-Apr-19 20:33N 53°20' E 007°08'10 9.7
2015-Apr-19 19:34N 53°26' E 006°55'1616.2
2015-Apr-19 18:33N 53°36' E 006°34'1010.0
2015-Apr-19 17:34N 53°39' E 006°18'4 4.1
2015-Apr-19 16:34N 53°40' E 006°11'1 1.2
2015-Apr-19 15:33N 53°39' E 006°12'4 4.1
2015-Apr-19 14:33N 53°39' E 006°05'1312.5
2015-Apr-19 13:33N 53°37' E 005°44'1313.2
2015-Apr-19 12:34N 53°33' E 005°23'1313.0
2015-Apr-19 11:34N 53°29' E 005°03'1313.0
2015-Apr-19 10:34N 53°23' E 004°43'1313.2
2015-Apr-19 09:33N 53°12' E 004°32'1913.0
2015-Apr-19 08:04N 52°54' E 004°17'713.1
2015-Apr-19 07:31N 52°48' E 004°12'1313.6
2015-Apr-19 06:33N 52°38' E 003°59'1414.6
2015-Apr-19 05:33N 52°28' E 003°41'1713.9
2015-Apr-19 04:22N 52°16' E 003°22'1314.6
2015-Apr-19 03:29N 52°07' E 003°07'1915.0
2015-Apr-19 02:12N 51°54' E 002°45'1015.2
2015-Apr-19 01:33N 51°46' E 002°35'1515.1
2015-Apr-19 00:33N 51°34' E 002°20'1414.2
2015-Apr-18 23:33N 51°22' E 002°09'1312.7
2015-Apr-18 22:34N 51°11' E 001°58'1312.8
2015-Apr-18 21:33N 51°03' E 001°41'1111.4
2015-Apr-18 20:33N 50°55' E 001°29'1110.2
2015-Apr-18 19:28N 50°44' E 001°25'4210.1
2015-Apr-18 15:19N 50°23' E 000°28'6611.3
2015-Apr-18 09:27N 50°05' W 001°12'3015.4
2015-Apr-18 07:30N 49°58' W 001°57'1815.5
2015-Apr-18 06:21N 49°53' W 002°24'  
2015-Apr-15 08:10N 45°09' W 004°28'16013.7
2015-Apr-14 20:33N 47°41' W 005°34'1413.6
2015-Apr-14 19:33N 47°55' W 005°40'1513.9
2015-Apr-14 18:26N 48°09' W 005°47'11113.7
2015-Apr-14 10:20N 50°00' W 006°00'1013.3
2015-Apr-14 09:33N 50°11' W 005°60'1413.7
2015-Apr-14 08:32N 50°24' W 006°00'1713.9
2015-Apr-14 07:18N 50°42' W 005°60'1114.1
2015-Apr-14 06:33N 50°52' W 005°60'1613.9
2015-Apr-14 05:25N 51°08' W 006°00'1213.5
2015-Apr-14 04:34N 51°20' W 006°01'1313.0
2015-Apr-14 03:33N 51°33' W 006°02'1312.4
2015-Apr-14 02:32N 51°45' W 005°57'1712.3
2015-Apr-14 01:09N 52°02' W 005°54'812.8
2015-Apr-14 00:33N 52°09' W 005°53'1313.4
2015-Apr-13 23:33N 52°23' W 005°53'56 2.9
2015-Apr-13 04:22N 53°18' W 006°02'5714.3
2015-Apr-13 00:23N 52°22' W 005°48'10615.0
2015-Apr-12 17:19N 50°36' W 005°53'1214.9
2015-Apr-12 16:32N 50°25' W 005°54'8710.3
2015-Apr-12 08:03N 49°58' W 003°44'714.4
2015-Apr-12 07:32N 49°59' W 003°33'1414.4
2015-Apr-12 06:33N 50°01' W 003°11'1514.7
2015-Apr-12 05:34N 50°03' W 002°49'1614.6
2015-Apr-12 04:30N 50°07' W 002°25'1313.8
2015-Apr-12 03:32N 50°10' W 002°05'2412.3
2015-Apr-12 01:33N 50°16' W 001°28'1111.5
2015-Apr-12 00:33N 50°19' W 001°11'1211.5
2015-Apr-11 23:30N 50°23' W 000°53'1212.6
2015-Apr-11 22:33N 50°26' W 000°35'2813.9
2015-Apr-11 20:33N 50°34' E 000°07'1414.6
2015-Apr-11 19:33N 50°38' E 000°29'1413.8
2015-Apr-11 18:33N 50°45' E 000°48'1312.7
2015-Apr-11 17:33N 50°52' E 001°04'  
Track history (hours):
 
Tides and Currents Weather Stations Pressure Air Temp Water Temp Dewpoint Dewpoint Depression Visibility Wind Speed Wind Dir Waves Ship Positions

Emden

Last reported at 2015-Apr-21 17:33 UTC. Time now 2015-Apr-21 17:53 UTC.
Position N 51°31' E 001°35'.

Length 177 m; draft 7.8 m.

Type: Ship. MMSI: 355051000.

Date/timePositionNaut miles runAvg speedWind from/ knotsBaromVisibWave heightAir tempDewpointWater temp
2015-Apr-21 17:33N 51°31' E 001°35'1212.3
2015-Apr-21 16:33N 51°34' E 001°54'1212.1
2015-Apr-21 15:33N 51°41' E 002°10'1212.4
2015-Apr-21 14:33N 51°49' E 002°26'1313.0
2015-Apr-21 13:33N 51°58' E 002°40'1414.4
2015-Apr-21 12:33N 52°09' E 002°56'1515.3
2015-Apr-21 11:33N 52°21' E 003°12'1615.6
2015-Apr-21 10:33N 52°33' E 003°27'1615.5
2015-Apr-21 09:32N 52°46' E 003°42'1414.7
2015-Apr-21 08:33N 52°57' E 003°58'1313.5
2015-Apr-21 07:33N 53°06' E 004°15'1212.2
2015-Apr-21 06:33N 53°15' E 004°28'1312.6
2015-Apr-21 05:33N 53°26' E 004°37'1312.8
2015-Apr-21 04:33N 53°32' E 004°56'1514.9
2015-Apr-21 03:33N 53°37' E 005°20'1515.0
2015-Apr-21 02:33N 53°41' E 005°44'1313.4
2015-Apr-21 01:33N 53°43' E 006°07'1212.2
2015-Apr-21 00:34N 53°37' E 006°25'1312.9
2015-Apr-20 23:34N 53°32' E 006°44'1211.9
2015-Apr-20 22:34N 53°23' E 006°58'7 7.1
2015-Apr-20 21:34N 53°20' E 007°09'1 1.2
2015-Apr-20 20:31N 53°20' E 007°11'0 0.0
2015-Apr-20 19:31N 53°20' E 007°11'0 0.0
2015-Apr-20 18:31N 53°20' E 007°11'0 0.0
2015-Apr-20 17:28N 53°20' E 007°11'0 0.0
2015-Apr-20 16:28N 53°20' E 007°11'0 0.0
2015-Apr-20 15:31N 53°20' E 007°11'0 0.0
2015-Apr-20 14:31N 53°20' E 007°11'0 0.0
2015-Apr-20 13:31N 53°20' E 007°11'0 0.0
2015-Apr-20 12:31N 53°20' E 007°11'0 0.0
2015-Apr-20 11:31N 53°20' E 007°11'0 0.0
2015-Apr-20 10:31N 53°20' E 007°11'0 0.0
2015-Apr-20 09:31N 53°20' E 007°11'0 0.0
2015-Apr-20 08:31N 53°20' E 007°11'0 0.0
2015-Apr-20 07:25N 53°20' E 007°11'0 0.0
2015-Apr-20 06:28N 53°20' E 007°11'0 0.0
2015-Apr-20 05:31N 53°20' E 007°11'0 0.0
2015-Apr-20 04:31N 53°20' E 007°11'0 0.0
2015-Apr-20 03:31N 53°20' E 007°11'0 0.0
2015-Apr-20 02:28N 53°20' E 007°11'0 0.0
2015-Apr-20 01:28N 53°20' E 007°11'0 0.0
2015-Apr-20 00:25N 53°20' E 007°11'0 0.0
2015-Apr-19 23:19N 53°20' E 007°11'0 0.0
2015-Apr-19 22:22N 53°20' E 007°11'0 0.0
2015-Apr-19 21:31N 53°20' E 007°11'2 1.9
2015-Apr-19 20:33N 53°20' E 007°08'10 9.7
2015-Apr-19 19:34N 53°26' E 006°55'1616.2
2015-Apr-19 18:33N 53°36' E 006°34'1010.0
2015-Apr-19 17:34N 53°39' E 006°18'4 4.1
2015-Apr-19 16:34N 53°40' E 006°11'1 1.2
2015-Apr-19 15:33N 53°39' E 006°12'4 4.1
2015-Apr-19 14:33N 53°39' E 006°05'1312.5
2015-Apr-19 13:33N 53°37' E 005°44'1313.2
2015-Apr-19 12:34N 53°33' E 005°23'1313.0
2015-Apr-19 11:34N 53°29' E 005°03'1313.0
2015-Apr-19 10:34N 53°23' E 004°43'1313.2
2015-Apr-19 09:33N 53°12' E 004°32'1913.0
2015-Apr-19 08:04N 52°54' E 004°17'713.1
2015-Apr-19 07:31N 52°48' E 004°12'1313.6
2015-Apr-19 06:33N 52°38' E 003°59'1414.6
2015-Apr-19 05:33N 52°28' E 003°41'1713.9
2015-Apr-19 04:22N 52°16' E 003°22'1314.6
2015-Apr-19 03:29N 52°07' E 003°07'1915.0
2015-Apr-19 02:12N 51°54' E 002°45'1015.2
2015-Apr-19 01:33N 51°46' E 002°35'1515.1
2015-Apr-19 00:33N 51°34' E 002°20'1414.2
2015-Apr-18 23:33N 51°22' E 002°09'1312.7
2015-Apr-18 22:34N 51°11' E 001°58'1312.8
2015-Apr-18 21:33N 51°03' E 001°41'1111.4
2015-Apr-18 20:33N 50°55' E 001°29'1110.2
2015-Apr-18 19:28N 50°44' E 001°25'4210.1
2015-Apr-18 15:19N 50°23' E 000°28'6611.3
2015-Apr-18 09:27N 50°05' W 001°12'3015.4
2015-Apr-18 07:30N 49°58' W 001°57'1815.5
2015-Apr-18 06:21N 49°53' W 002°24'  
2015-Apr-15 08:10N 45°09' W 004°28'16013.7
2015-Apr-14 20:33N 47°41' W 005°34'1413.6
2015-Apr-14 19:33N 47°55' W 005°40'1513.9
2015-Apr-14 18:26N 48°09' W 005°47'11113.7
2015-Apr-14 10:20N 50°00' W 006°00'1013.3
2015-Apr-14 09:33N 50°11' W 005°60'1413.7
2015-Apr-14 08:32N 50°24' W 006°00'1713.9
2015-Apr-14 07:18N 50°42' W 005°60'1114.1
2015-Apr-14 06:33N 50°52' W 005°60'1613.9
2015-Apr-14 05:25N 51°08' W 006°00'1213.5
2015-Apr-14 04:34N 51°20' W 006°01'1313.0
2015-Apr-14 03:33N 51°33' W 006°02'1312.4
2015-Apr-14 02:32N 51°45' W 005°57'1712.3
2015-Apr-14 01:09N 52°02' W 005°54'812.8
2015-Apr-14 00:33N 52°09' W 005°53'1313.4
2015-Apr-13 23:33N 52°23' W 005°53'56 2.9
2015-Apr-13 04:22N 53°18' W 006°02'5714.3
2015-Apr-13 00:23N 52°22' W 005°48'10615.0
2015-Apr-12 17:19N 50°36' W 005°53'1214.9
2015-Apr-12 16:32N 50°25' W 005°54'8710.3
2015-Apr-12 08:03N 49°58' W 003°44'714.4
2015-Apr-12 07:32N 49°59' W 003°33'1414.4
2015-Apr-12 06:33N 50°01' W 003°11'1514.7
2015-Apr-12 05:34N 50°03' W 002°49'1614.6
2015-Apr-12 04:30N 50°07' W 002°25'1313.8
2015-Apr-12 03:32N 50°10' W 002°05'2412.3
2015-Apr-12 01:33N 50°16' W 001°28'1111.5
2015-Apr-12 00:33N 50°19' W 001°11'1211.5
2015-Apr-11 23:30N 50°23' W 000°53'1212.6
2015-Apr-11 22:33N 50°26' W 000°35'2813.9
2015-Apr-11 20:33N 50°34' E 000°07'1414.6
2015-Apr-11 19:33N 50°38' E 000°29'1413.8
2015-Apr-11 18:33N 50°45' E 000°48'1312.7
2015-Apr-11 17:33N 50°52' E 001°04'  

Dump ship's entire track history